• Join FlightAware (Why Join?)
  • Login
  • US Flag 
06:51AM EDT


 

Airport Tracker/Info


-or-


 

Live Flight TrackerFlight Track Log ✈ PDT4226 ✈ 23-Jan-2014 ✈ KBGM - KPHL

Flight Track Log - Related Links

Times and Time Zones

All times are in EST time to prevent confusion due to time zone crossing. See the PDT4226 flight status page for this flight to view local times or setup timezone preferences in your user account.

Time Position Orientation Groundspeed Altitude Reporting Facility
EST Latitude Longitude Course Direction KTS MPH feet Rate Location/Type
01:52PM 42.0626 -75.9319 180° South  Level Estimated
01:53PM 42.0126 -75.9321 180° South  Level FlightAware Approximate
01:54PM 41.9626 -75.9323 180° South  Level FlightAware Approximate
01:55PM 41.9126 -75.9326 180° South  Level FlightAware Approximate
01:56PM 41.8641 -75.9156 154° Southeast  Level Estimated
01:57PM 41.8157 -75.8987 160° South  Level Estimated
01:58PM 41.7661 -75.8900 173° South  Level FlightAware Approximate
01:59PM 41.7178 -75.8729 159° South  Level Estimated
02:00PM 41.6692 -75.8566 166° South  Level FlightAware Approximate
02:01PM 41.6208 -75.8396 153° Southeast  Level Estimated
02:02PM 41.5725 -75.8226 161° South  Level Estimated
02:03PM 41.5251 -75.8009 161° South  Level FlightAware Approximate
02:04PM 41.4778 -75.7793 161° South  Level FlightAware Approximate
02:05PM 41.4305 -75.7578 161° South  Level FlightAware Approximate
02:06PM 41.3820 -75.7413 162° South  Level Estimated
02:07PM 41.3347 -75.7196 161° South  Level FlightAware Approximate
02:08PM 41.2874 -75.6979 161° South  Level FlightAware Approximate
02:09PM 41.2401 -75.6762 161° South  Level FlightAware Approximate
02:10PM 41.1928 -75.6545 161° South  Level FlightAware Approximate
02:11PM 41.1455 -75.6329 161° South  Level FlightAware Approximate
02:12PM 41.0968 -75.6177 159° South  Level Estimated
02:13PM 41.0481 -75.6024 163° South  Level Estimated
02:14PM 41.0009 -75.5806 161° South  Level FlightAware Approximate
02:15PM 40.9537 -75.5588 161° South  Level FlightAware Approximate
02:16PM 40.9064 -75.5370 161° South  Level FlightAware Approximate
02:16PM 40.6667 -75.4667 180° South 204 235 5,200  Level Philadelphia TRACON
02:17PM 40.8592 -75.5153 161° South  Level FlightAware Approximate
02:17PM 40.6000 -75.4833 191° South 186 214 5,000  Level Philadelphia TRACON
02:18PM 40.8102 -75.5015 190° South  Level Estimated
02:18PM 40.5500 -75.5000 194° South 190 219 5,000  Level Philadelphia TRACON
02:19PM 40.7602 -75.5013 180° South  Level FlightAware Approximate
02:19PM 40.5000 -75.4667 153° Southeast 214 246 5,000  Level Philadelphia TRACON
02:20PM 40.7102 -75.5010 180° South  Level FlightAware Approximate
02:20PM 40.4500 -75.4167 143° Southeast 208 239 4,900  Level Philadelphia TRACON
02:21PM 40.6602 -75.5008 180° South  Level FlightAware Approximate
02:21PM 40.4167 -75.3833 143° Southeast 204 235 4,900  Level Philadelphia TRACON
02:22PM 40.3500 -75.3333 150° Southeast 206 237 4,600 -480 Descending Philadelphia TRACON
02:23PM 40.3000 -75.3000 153° Southeast 212 244 3,900 -360 Descending Philadelphia TRACON
02:24PM 40.2500 -75.2667 153° Southeast 201 231 3,900  Level Philadelphia TRACON
02:25PM 40.2000 -75.2500 166° South 194 223 3,900  Level Philadelphia TRACON
02:26PM 40.1500 -75.2333 166° South 200 230 3,900  Level Philadelphia TRACON
02:27PM 40.1000 -75.2000 153° Southeast 202 232 3,900  Level Philadelphia TRACON
02:28PM 40.0500 -75.1833 166° South 206 237 3,900  Level Philadelphia TRACON
02:29PM 40.0000 -75.1667 166° South 202 232 3,900  Level Philadelphia TRACON
02:30PM 39.9333 -75.1500 169° South 205 236 3,900  Level Philadelphia TRACON
02:31PM 39.8667 -75.1333 169° South 206 237 3,900  Level Philadelphia TRACON
02:32PM 39.8167 -75.1333 180° South 204 235 3,900 -360 Level Philadelphia TRACON
02:33PM 39.7667 -75.1000 153° Southeast 217 250 3,200 -540 Descending Philadelphia TRACON
02:34PM 39.7167 -75.1167 194° South 168 193 2,900 -360 Descending Philadelphia TRACON
02:35PM 39.7167 -75.1667 270° West 139 160 2,600 -540 Descending Philadelphia TRACON
02:36PM 39.7333 -75.2000 303° West 168 193 1,900 -420 Descending Philadelphia TRACON
02:37PM 39.7667 -75.1667 38° Northeast 154 177 1,900 -180 Level Philadelphia TRACON
02:38PM 39.8167 -75.1833 346° North 145 167 1,600 -480 Descending Philadelphia TRACON
02:39PM 39.8333 -75.2000 322° Northwest 127 146 1,000 -780 Descending Philadelphia TRACON
02:40PM 39.8667 -75.2167 339° North 109 125 200 -780 Descending Philadelphia TRACON